Time;durP1;ratioP1;P1;durP2;ratioP2;P2;SDS_P1;SDS_P2;PMS_P1;PMS_P2;Temp;Humidity;BMP_temperature;BMP_pressure;BME280_temperature;BME280_humidity;BME280_pressure;Samples;Min_cycle;Max_cycle;Signal;HPM_P1;HPM_P2
2022/12/11 00:00:42;;;;;;;0.70;0.70;;;;;;;-7.28;78.65;100350.50;5084685;28;20060;-66
2022/12/11 00:03:07;;;;;;;0.70;0.70;;;;;;;-7.19;78.69;100362.84;5084600;28;20028;-66
2022/12/11 00:05:33;;;;;;;0.70;0.70;;;;;;;-7.19;78.68;100361.19;5084785;28;20035;-67
2022/12/11 00:07:58;;;;;;;0.60;0.60;;;;;;;-7.24;78.69;100353.34;5084466;28;20047;-66
2022/12/11 00:10:24;;;;;;;0.60;0.60;;;;;;;-7.15;78.71;100358.06;5084774;28;20048;-66
2022/12/11 00:12:50;;;;;;;0.70;0.70;;;;;;;-7.10;78.70;100355.84;5084092;28;20024;-65
2022/12/11 00:15:16;;;;;;;0.70;0.70;;;;;;;-7.04;78.80;100361.25;5084832;28;20021;-66
2022/12/11 00:17:41;;;;;;;0.60;0.60;;;;;;;-7.04;78.89;100351.16;5084501;28;20040;-66
2022/12/11 00:20:07;;;;;;;0.70;0.70;;;;;;;-6.95;78.84;100357.56;5084526;28;20399;-66
2022/12/11 00:22:33;;;;;;;0.70;0.70;;;;;;;-6.97;78.90;100360.00;5084061;28;20071;-68
2022/12/11 00:24:58;;;;;;;0.70;0.70;;;;;;;-6.93;78.94;100358.53;5084735;28;20020;-66
2022/12/11 00:27:24;;;;;;;0.70;0.70;;;;;;;-6.89;78.93;100355.41;5084358;28;20031;-67
2022/12/11 00:29:49;;;;;;;0.65;0.65;;;;;;;-6.82;78.90;100364.25;5084159;28;20025;-66
2022/12/11 00:32:14;;;;;;;0.70;0.70;;;;;;;-6.80;78.88;100367.72;5084423;28;20058;-66
2022/12/11 00:34:40;;;;;;;0.80;0.80;;;;;;;-6.77;79.06;100363.72;5084150;28;20081;-66
2022/12/11 00:37:05;;;;;;;0.70;0.70;;;;;;;-6.82;79.05;100361.72;5084264;28;20056;-66
2022/12/11 00:39:31;;;;;;;0.60;0.60;;;;;;;-6.97;79.28;100343.22;5084380;28;20035;-66
2022/12/11 00:41:57;;;;;;;0.70;0.70;;;;;;;-6.84;79.05;100362.47;5084141;28;20024;-66
2022/12/11 00:44:22;;;;;;;0.70;0.70;;;;;;;-6.76;79.20;100365.50;5086901;28;20031;-65
2022/12/11 00:46:48;;;;;;;0.65;0.65;;;;;;;-6.76;79.34;100359.56;5088223;28;20369;-66
2022/12/11 00:49:14;;;;;;;1.25;1.25;;;;;;;-6.75;79.43;100364.72;5088409;28;20160;-65
2022/12/11 00:51:39;;;;;;;0.70;0.70;;;;;;;-6.76;79.47;100368.03;5086775;28;20035;-66
2022/12/11 00:54:05;;;;;;;0.60;0.60;;;;;;;-6.81;79.80;100358.41;5086963;28;20034;-65
2022/12/11 00:56:31;;;;;;;0.60;0.60;;;;;;;-6.82;79.82;100367.63;5088281;28;20115;-66
2022/12/11 00:58:56;;;;;;;0.60;0.60;;;;;;;-6.86;79.89;100360.66;5087865;28;20044;-66
2022/12/11 01:01:24;;;;;;;0.70;0.70;;;;;;;-6.83;80.18;100375.97;5088099;28;20031;-66
2022/12/11 01:03:50;;;;;;;0.70;0.70;;;;;;;-6.88;80.05;100373.19;5088009;28;20055;-65
2022/12/11 01:06:18;;;;;;;0.68;0.68;;;;;;;-6.87;80.38;100381.63;5088007;28;20044;-65
2022/12/11 01:08:45;;;;;;;0.70;0.70;;;;;;;-6.90;80.35;100372.19;5087951;28;20023;-65
2022/12/11 01:11:13;;;;;;;0.63;0.63;;;;;;;-6.87;80.35;100379.13;5087552;28;20021;-65
2022/12/11 01:13:39;;;;;;;0.70;0.70;;;;;;;-6.92;80.52;100375.41;5087531;28;20468;-65
2022/12/11 01:16:07;;;;;;;0.70;0.70;;;;;;;-6.81;80.38;100381.13;5087712;28;20082;-65
2022/12/11 01:18:32;;;;;;;3.90;3.70;;;;;;;-6.86;80.50;100380.84;5086250;28;20028;-65
2022/12/11 01:20:58;;;;;;;0.70;0.70;;;;;;;-6.84;80.46;100385.19;5087243;28;20052;-65
2022/12/11 01:23:23;;;;;;;0.70;0.70;;;;;;;-6.85;80.61;100385.09;5087711;28;20481;-65
2022/12/11 01:25:49;;;;;;;0.60;0.60;;;;;;;-6.87;80.63;100384.16;5087579;28;20025;-66
2022/12/11 01:28:14;;;;;;;0.70;0.70;;;;;;;-6.88;80.75;100374.81;5086999;28;20058;-65
2022/12/11 01:30:42;;;;;;;0.70;0.70;;;;;;;-6.84;80.65;100381.81;5087695;28;20076;-66
2022/12/11 01:33:08;;;;;;;1.10;1.10;;;;;;;-6.84;80.62;100380.16;5087159;28;20048;-65
2022/12/11 01:35:33;;;;;;;0.77;0.77;;;;;;;-6.84;80.86;100382.69;5087569;28;20050;-65
2022/12/11 01:37:59;;;;;;;0.70;0.70;;;;;;;-6.89;80.84;100370.56;5087258;28;20040;-65
2022/12/11 01:40:24;;;;;;;0.70;0.70;;;;;;;-6.85;80.84;100385.09;5087247;28;20032;-65
2022/12/11 01:42:50;;;;;;;0.70;0.70;;;;;;;-6.91;81.13;100377.16;5086895;28;20037;-66
2022/12/11 01:45:37;;;;;;;0.70;0.70;;;;;;;-6.92;81.10;100388.03;5087242;28;20059;-64
2022/12/11 01:48:07;;;;;;;0.63;0.63;;;;;;;-6.95;81.16;100377.75;5087115;28;20032;-65
2022/12/11 01:50:41;;;;;;;0.70;0.70;;;;;;;-6.91;81.46;100388.13;5087468;28;20084;-64
2022/12/11 01:53:11;;;;;;;0.70;0.70;;;;;;;-6.89;81.41;100386.59;5086471;28;20016;-64
2022/12/11 01:55:38;;;;;;;0.70;0.70;;;;;;;-6.97;81.53;100377.66;5087353;28;20229;-65
2022/12/11 01:58:05;;;;;;;0.60;0.60;;;;;;;-6.91;81.68;100382.22;5086659;28;20020;-65
2022/12/11 02:00:30;;;;;;;0.60;0.60;;;;;;;-6.88;81.74;100379.88;5085580;28;20029;-65
2022/12/11 02:02:56;;;;;;;0.70;0.70;;;;;;;-6.89;81.80;100373.09;5086848;28;20058;-65
2022/12/11 02:05:21;;;;;;;0.70;0.70;;;;;;;-6.89;81.82;100373.09;5086811;28;20388;-65
2022/12/11 02:07:51;;;;;;;0.70;0.70;;;;;;;-6.85;81.80;100378.41;5086817;28;20028;-65
2022/12/11 02:10:17;;;;;;;0.70;0.70;;;;;;;-6.83;82.09;100375.97;5086912;28;20445;-64
2022/12/11 02:12:48;;;;;;;0.70;0.70;;;;;;;-6.84;81.86;100366.69;5086725;28;20517;-65
2022/12/11 02:15:23;;;;;;;;;;;;;;;-6.82;82.02;100370.16;5087054;28;20077;-64
2022/12/11 02:18:10;;;;;;;0.60;0.60;;;;;;;-6.82;81.90;100365.09;5086634;28;19915;-64
2022/12/11 02:20:59;;;;;;;0.70;0.70;;;;;;;-6.81;81.93;100366.88;5086316;28;20045;-65
2022/12/11 02:23:52;;;;;;;0.70;0.70;;;;;;;-6.80;82.00;100363.53;5086298;28;20111;-65
2022/12/11 02:26:30;;;;;;;0.63;0.63;;;;;;;-6.81;82.01;100371.91;5086266;28;20021;-65
2022/12/11 02:29:03;;;;;;;0.70;0.70;;;;;;;-6.79;82.04;100372.88;5084900;28;20025;-63
2022/12/11 02:31:38;;;;;;;0.70;0.70;;;;;;;-6.79;82.27;100375.41;5086590;28;20020;-64
2022/12/11 02:34:12;;;;;;;0.70;0.70;;;;;;;-6.75;82.29;100367.25;5086473;28;20421;-64
2022/12/11 02:36:45;;;;;;;0.70;0.70;;;;;;;-6.73;82.50;100368.22;5086191;28;20028;-64
2022/12/11 02:39:14;;;;;;;0.70;0.70;;;;;;;-6.68;82.59;100367.59;5086268;28;20492;-64
2022/12/11 02:41:45;;;;;;;0.70;0.70;;;;;;;-6.64;82.79;100369.53;5084574;28;20016;-63
2022/12/11 02:44:14;;;;;;;0.60;0.60;;;;;;;-6.63;82.79;100369.63;5085828;28;20025;-64
2022/12/11 02:46:41;;;;;;;0.60;0.60;;;;;;;-6.65;82.80;100353.53;5084721;28;20024;-64
2022/12/11 02:49:10;;;;;;;0.70;0.70;;;;;;;-6.59;82.77;100365.63;5085814;28;20101;-64
2022/12/11 02:51:39;;;;;;;0.65;0.65;;;;;;;-6.60;82.67;100353.78;5084404;28;20119;-64
2022/12/11 02:54:09;;;;;;;0.70;0.70;;;;;;;-6.55;82.66;100365.03;5085876;28;20036;-64
2022/12/11 02:56:45;;;;;;;0.70;0.70;;;;;;;-6.54;82.85;100363.38;5085692;28;20020;-64
2022/12/11 02:59:22;;;;;;;0.70;0.70;;;;;;;-6.50;82.69;100370.38;5085594;28;20025;-64
2022/12/11 03:01:48;;;;;;;0.70;0.70;;;;;;;-6.49;82.79;100373.00;5085679;28;20084;-63
2022/12/11 03:04:13;;;;;;;0.60;0.60;;;;;;;-6.49;82.75;100360.38;5085427;28;20024;-63
2022/12/11 03:06:45;;;;;;;0.65;0.65;;;;;;;-6.43;82.86;100369.06;5084602;28;20017;-63
2022/12/11 03:09:11;;;;;;;0.60;0.60;;;;;;;-6.41;82.75;100365.00;5085378;28;20021;-64
2022/12/11 03:11:36;;;;;;;0.70;0.70;;;;;;;-6.44;82.61;100355.59;5085419;28;20028;-64
2022/12/11 03:14:02;;;;;;;0.70;0.70;;;;;;;-6.41;82.74;100355.78;5085297;28;20024;-64
2022/12/11 03:16:41;;;;;;;0.60;0.60;;;;;;;-6.37;82.76;100355.16;5084124;28;20084;-65
2022/12/11 03:19:30;;;;;;;0.70;0.70;;;;;;;-6.33;82.85;100358.75;5085520;28;20017;-63
2022/12/11 03:22:07;;;;;;;0.70;0.70;;;;;;;-6.36;82.70;100354.38;5084945;28;20064;-64
2022/12/11 03:24:45;;;;;;;0.63;0.63;;;;;;;-6.38;82.66;100353.44;5085232;28;20021;-64
2022/12/11 03:27:32;;;;;;;0.70;0.70;;;;;;;-6.39;82.76;100348.28;5085198;28;20036;-64
2022/12/11 03:30:20;;;;;;;0.70;0.70;;;;;;;-6.36;82.62;100351.00;5085178;28;20024;-63
2022/12/11 03:32:59;;;;;;;0.65;0.65;;;;;;;-6.39;82.59;100348.28;5085029;28;20024;-64
2022/12/11 03:35:28;;;;;;;0.70;0.70;;;;;;;-6.38;82.68;100348.38;5085064;28;20360;-64
2022/12/11 03:37:59;;;;;;;0.60;0.60;;;;;;;-6.38;82.46;100339.91;5085051;28;20027;-64
2022/12/11 03:40:28;;;;;;;0.80;0.80;;;;;;;-6.40;82.51;100339.81;5084978;28;20060;-64
2022/12/11 03:42:55;;;;;;;0.70;0.70;;;;;;;-6.37;82.78;100342.53;5084654;28;20032;-64
2022/12/11 03:45:23;;;;;;;0.60;0.60;;;;;;;-6.38;82.55;100339.91;5084946;28;20103;-64
2022/12/11 03:47:51;;;;;;;0.70;0.70;;;;;;;-6.41;82.60;100334.69;5084555;28;20023;-64
2022/12/11 03:50:19;;;;;;;0.60;0.60;;;;;;;-6.41;82.55;100339.72;5085043;28;20027;-64
2022/12/11 03:52:46;;;;;;;0.70;0.70;;;;;;;-6.40;82.63;100333.88;5084683;28;20025;-64
2022/12/11 03:55:15;;;;;;;0.60;0.60;;;;;;;-6.39;82.75;100333.13;5084995;28;20047;-64
2022/12/11 03:57:41;;;;;;;0.60;0.60;;;;;;;-6.40;82.69;100337.28;5084559;28;20028;-64
2022/12/11 04:00:10;;;;;;;0.60;0.60;;;;;;;-6.41;82.47;100334.69;5084799;28;20059;-63
2022/12/11 04:02:35;;;;;;;0.70;0.70;;;;;;;-6.40;82.57;100339.81;5084337;28;20028;-63
2022/12/11 04:05:00;;;;;;;0.60;0.60;;;;;;;-6.40;82.64;100332.25;5084748;28;20051;-64
2022/12/11 04:07:27;;;;;;;0.60;0.60;;;;;;;-6.40;82.48;100333.88;5084538;28;20055;-63
2022/12/11 04:09:52;;;;;;;0.60;0.60;;;;;;;-6.41;82.51;100329.63;5083334;28;20016;-63
2022/12/11 04:12:18;;;;;;;0.65;0.65;;;;;;;-6.42;82.33;100328.75;5084454;28;20127;-64
2022/12/11 04:15:02;;;;;;;0.70;0.70;;;;;;;-6.44;82.31;100337.03;5084547;28;20027;-64
2022/12/11 04:25:48;;;;;;;0.60;0.60;;;;;;;-6.53;82.38;100338.22;5084647;28;20109;-65
2022/12/11 04:28:14;;;;;;;0.70;0.70;;;;;;;-6.68;82.44;100322.16;5084206;28;20037;-64
2022/12/11 04:30:39;;;;;;;0.70;0.70;;;;;;;-6.63;82.50;100336.78;5084321;28;20020;-64
2022/12/11 04:33:05;;;;;;;0.70;0.70;;;;;;;-6.62;82.50;100343.59;5084392;28;20024;-64
2022/12/11 04:35:30;;;;;;;0.70;0.70;;;;;;;-6.68;82.57;100329.72;5084400;28;20024;-64
2022/12/11 04:37:55;;;;;;;0.70;0.70;;;;;;;-6.76;82.48;100317.53;5084185;28;20107;-64
2022/12/11 04:40:21;;;;;;;0.70;0.70;;;;;;;-6.68;82.52;100328.09;5084339;28;20029;-64
2022/12/11 04:42:47;;;;;;;0.70;0.70;;;;;;;-6.73;82.51;100331.97;5084006;28;20459;-64
2022/12/11 04:45:13;;;;;;;0.60;0.60;;;;;;;-6.79;82.40;100329.97;5084302;28;20050;-65
2022/12/11 04:47:40;;;;;;;0.70;0.70;;;;;;;-6.80;82.57;100332.38;5084162;28;20418;-65
2022/12/11 04:50:07;;;;;;;0.70;0.70;;;;;;;-6.86;82.49;100328.72;5084281;28;20036;-63
2022/12/11 04:52:33;;;;;;;0.70;0.70;;;;;;;-6.88;82.55;100327.75;5084225;28;20037;-63
2022/12/11 04:54:58;;;;;;;0.70;0.70;;;;;;;-6.94;82.63;100323.97;5084114;28;20046;-63
2022/12/11 04:57:23;;;;;;;0.57;0.57;;;;;;;-6.93;82.68;100319.00;5084144;28;20028;-63
2022/12/11 04:59:49;;;;;;;0.60;0.60;;;;;;;-6.94;82.66;100322.31;5083979;28;20040;-63
2022/12/11 05:02:15;;;;;;;0.80;0.80;;;;;;;-6.94;82.62;100329.91;5083881;28;20190;-63
2022/12/11 05:04:41;;;;;;;0.70;0.70;;;;;;;-6.94;82.80;100326.47;5084455;28;20027;-64
2022/12/11 05:07:08;;;;;;;0.75;0.75;;;;;;;-6.99;82.72;100316.09;5083625;28;20044;-63
2022/12/11 05:09:34;;;;;;;0.70;0.70;;;;;;;-6.92;82.82;100317.38;5084185;28;20111;-63
2022/12/11 05:12:00;;;;;;;0.70;0.70;;;;;;;-6.93;82.66;100319.00;5083754;28;20074;-64
2022/12/11 05:14:26;;;;;;;0.60;0.60;;;;;;;-6.95;82.66;100324.75;5083865;28;20430;-64
2022/12/11 05:16:52;;;;;;;0.70;0.70;;;;;;;-6.93;82.79;100323.19;5084056;28;20033;-64
2022/12/11 05:19:17;;;;;;;0.70;0.70;;;;;;;-6.98;83.01;100306.09;5083795;28;20025;-63
2022/12/11 05:21:43;;;;;;;0.70;0.70;;;;;;;-6.86;82.84;100327.84;5083893;28;20070;-63
2022/12/11 05:24:08;;;;;;;0.80;0.80;;;;;;;-6.82;82.66;100326.38;5082468;28;20030;-63
2022/12/11 05:26:34;;;;;;;0.70;0.70;;;;;;;-6.85;82.60;100327.03;5084134;28;20028;-63
2022/12/11 05:28:59;;;;;;;0.70;0.70;;;;;;;-6.84;82.84;100323.75;5085235;28;20060;-64
2022/12/11 05:31:26;;;;;;;0.70;0.70;;;;;;;-6.90;82.59;100321.72;5087656;28;20024;-64
2022/12/11 05:33:53;;;;;;;0.70;0.70;;;;;;;-6.94;82.60;100317.28;5087538;28;20021;-64
2022/12/11 05:36:22;;;;;;;0.70;0.70;;;;;;;-6.89;82.64;100333.56;5087526;28;20023;-64
2022/12/11 05:38:49;;;;;;;0.70;0.70;;;;;;;-6.86;82.58;100335.41;5087394;28;20039;-64
2022/12/11 05:41:17;;;;;;;1.08;1.08;;;;;;;-7.07;82.82;100299.63;5087173;28;20055;-64
2022/12/11 05:43:43;;;;;;;0.70;0.70;;;;;;;-6.91;82.74;100326.66;5086953;28;20020;-64
2022/12/11 05:46:09;;;;;;;0.68;0.68;;;;;;;-6.95;82.52;100328.16;5087155;28;20058;-63
2022/12/11 05:48:35;;;;;;;0.70;0.70;;;;;;;-6.98;82.46;100317.88;5087185;28;20020;-63
2022/12/11 05:51:02;;;;;;;0.80;0.80;;;;;;;-7.02;82.56;100319.34;5087055;28;20027;-64
2022/12/11 05:53:27;;;;;;;0.70;0.70;;;;;;;-7.08;82.41;100321.47;5085555;28;20028;-63
2022/12/11 05:55:53;;;;;;;0.70;0.70;;;;;;;-7.15;82.67;100329.44;5087147;28;20088;-64
2022/12/11 05:58:19;;;;;;;0.70;0.70;;;;;;;-7.13;82.83;100320.31;5085231;28;20023;-63
2022/12/11 06:00:46;;;;;;;0.60;0.60;;;;;;;-7.15;82.80;100322.75;5085752;28;20043;-64
2022/12/11 06:03:11;;;;;;;0.60;0.60;;;;;;;-7.15;82.94;100324.38;5086761;28;20029;-63
2022/12/11 06:05:41;;;;;;;0.60;0.60;;;;;;;-7.17;82.90;100323.44;5087080;28;20020;-64
2022/12/11 06:08:06;;;;;;;0.60;0.60;;;;;;;-7.19;82.91;100332.56;5086600;28;20490;-64
2022/12/11 06:10:32;;;;;;;0.70;0.70;;;;;;;-7.23;82.95;100323.91;5086729;28;20028;-63
2022/12/11 06:12:57;;;;;;;0.70;0.70;;;;;;;-7.24;83.04;100322.19;5086605;28;20024;-63
2022/12/11 06:15:23;;;;;;;0.70;0.70;;;;;;;-7.20;83.13;100333.34;5086748;28;20056;-63
2022/12/11 06:17:48;;;;;;;0.70;0.70;;;;;;;-7.17;82.96;100343.63;5086721;28;20039;-64
2022/12/11 06:20:13;;;;;;;0.70;0.70;;;;;;;-7.17;82.86;100339.44;5086548;28;20054;-64
2022/12/11 06:22:39;;;;;;;0.70;0.70;;;;;;;-7.17;83.08;100344.47;5086303;28;20060;-64
2022/12/11 06:25:05;;;;;;;0.70;0.70;;;;;;;-7.14;83.17;100348.88;5085433;28;20025;-64
2022/12/11 06:27:30;;;;;;;0.70;0.70;;;;;;;-7.12;83.01;100349.81;5086503;28;20024;-63
2022/12/11 06:29:56;;;;;;;0.70;0.70;;;;;;;-7.15;83.05;100353.03;5086410;28;20056;-66
2022/12/11 06:32:21;;;;;;;0.70;0.70;;;;;;;-7.15;82.89;100358.06;5086309;28;20089;-64
2022/12/11 06:34:47;;;;;;;0.70;0.70;;;;;;;-7.15;82.91;100353.03;5086423;28;20025;-64
2022/12/11 06:37:12;;;;;;;0.70;0.70;;;;;;;-7.14;82.81;100354.75;5086210;28;20044;-64
2022/12/11 06:39:38;;;;;;;0.70;0.70;;;;;;;-7.12;83.04;100353.22;5086330;28;20077;-64
2022/12/11 06:42:03;;;;;;;0.65;0.65;;;;;;;-7.08;83.06;100351.75;5086016;28;20025;-63
2022/12/11 06:44:28;;;;;;;0.70;0.70;;;;;;;-7.07;83.04;100358.53;5085854;28;20025;-64
2022/12/11 06:46:54;;;;;;;0.70;0.70;;;;;;;-7.18;82.88;100341.84;5086208;28;20063;-63
2022/12/11 06:49:19;;;;;;;0.70;0.70;;;;;;;-7.05;82.62;100364.56;5086228;28;20033;-63
2022/12/11 06:51:45;;;;;;;0.70;0.70;;;;;;;-7.09;82.58;100358.44;5085878;28;20059;-63
2022/12/11 06:54:10;;;;;;;0.68;0.68;;;;;;;-7.09;82.76;100370.19;5085988;28;20074;-64
2022/12/11 06:56:35;;;;;;;0.70;0.70;;;;;;;-7.10;82.59;100364.28;5084497;28;20031;-63
2022/12/11 06:59:01;;;;;;;0.68;0.68;;;;;;;-7.05;82.67;100364.56;5085901;28;20464;-64
2022/12/11 07:01:27;;;;;;;0.63;0.63;;;;;;;-7.04;82.99;100358.72;5085745;28;20028;-64
2022/12/11 07:03:54;;;;;;;0.60;0.60;;;;;;;-7.01;83.00;100361.44;5085845;28;20035;-64
2022/12/11 07:06:20;;;;;;;0.70;0.70;;;;;;;-7.02;82.65;100366.41;5085741;28;20017;-63
2022/12/11 07:08:45;;;;;;;0.70;0.70;;;;;;;-7.30;82.67;100324.31;5085590;28;20035;-63
2022/12/11 07:11:13;;;;;;;0.68;0.68;;;;;;;-7.08;82.60;100366.91;5085850;28;20099;-64
2022/12/11 07:13:40;;;;;;;0.70;0.70;;;;;;;-7.12;82.47;100359.91;5085321;28;20043;-65
2022/12/11 07:16:09;;;;;;;0.70;0.70;;;;;;;-7.15;82.77;100364.75;5085514;28;20021;-64
2022/12/11 07:18:36;;;;;;;0.70;0.70;;;;;;;-7.10;82.71;100366.81;5084027;28;20024;-64
2022/12/11 07:21:02;;;;;;;0.70;0.70;;;;;;;-7.11;82.73;100369.25;5085393;28;20044;-65
2022/12/11 07:23:28;;;;;;;0.70;0.70;;;;;;;-7.13;82.88;100363.22;5085077;28;20101;-63
2022/12/11 07:25:54;;;;;;;0.70;0.70;;;;;;;-7.16;82.76;100371.47;5085447;28;20498;-64
2022/12/11 07:28:19;;;;;;;0.70;0.70;;;;;;;-7.15;82.95;100362.22;5084977;28;20025;-63
2022/12/11 07:30:45;;;;;;;0.70;0.70;;;;;;;-7.14;82.88;100369.03;5085071;28;20420;-64
2022/12/11 07:33:10;;;;;;;0.70;0.70;;;;;;;-7.18;82.98;100360.41;5085249;28;20119;-64
2022/12/11 07:35:36;;;;;;;0.70;0.70;;;;;;;-7.19;82.90;100362.84;5085049;28;20054;-64
2022/12/11 07:38:01;;;;;;;0.70;0.70;;;;;;;-7.16;83.15;100363.91;5085048;28;20084;-65
2022/12/11 07:40:27;;;;;;;0.70;0.70;;;;;;;-7.13;83.30;100374.19;5085139;28;20096;-64
2022/12/11 07:42:52;;;;;;;0.70;0.70;;;;;;;-7.13;83.22;100370.78;5083670;28;20187;-64
2022/12/11 07:45:18;;;;;;;0.70;0.70;;;;;;;-7.14;82.86;100362.31;5085131;28;20025;-64
2022/12/11 07:47:43;;;;;;;0.70;0.70;;;;;;;-7.10;82.96;100374.38;5083588;28;20051;-65
2022/12/11 07:50:08;;;;;;;0.70;0.70;;;;;;;-7.10;83.03;100359.25;5085433;28;20023;-64
2022/12/11 07:52:34;;;;;;;0.70;0.70;;;;;;;-7.03;82.90;100372.22;5084341;28;20020;-64
2022/12/11 07:55:00;;;;;;;0.70;0.70;;;;;;;-7.01;82.84;100379.13;5085020;28;20028;-64
2022/12/11 07:57:26;;;;;;;0.70;0.70;;;;;;;-7.01;82.98;100380.78;5084943;28;20028;-65
2022/12/11 07:59:52;;;;;;;0.60;0.60;;;;;;;-7.01;82.72;100384.16;5084390;28;20025;-64
2022/12/11 08:02:17;;;;;;;0.70;0.70;;;;;;;-7.15;82.72;100364.75;5084977;28;20032;-64
2022/12/11 08:04:42;;;;;;;0.70;0.70;;;;;;;-7.03;82.99;100387.38;5084606;28;20021;-64
2022/12/11 08:07:08;;;;;;;0.70;0.70;;;;;;;-7.05;82.97;100387.28;5083400;28;20024;-64
2022/12/11 08:09:33;;;;;;;0.70;0.70;;;;;;;-7.05;82.95;100392.34;5084818;28;20028;-64
2022/12/11 08:11:59;;;;;;;0.70;0.70;;;;;;;-7.03;82.99;100393.31;5084622;28;20020;-65
2022/12/11 08:14:24;;;;;;;0.70;0.70;;;;;;;-6.98;83.05;100386.88;5084588;28;20101;-65
2022/12/11 08:16:49;;;;;;;0.70;0.70;;;;;;;-6.94;83.22;100387.06;5084805;28;20048;-64
2022/12/11 08:19:15;;;;;;;0.70;0.70;;;;;;;-6.91;82.88;100394.81;5084521;28;20024;-64
2022/12/11 08:21:41;;;;;;;0.70;0.70;;;;;;;-6.94;82.95;100389.59;5084185;28;20399;-65
2022/12/11 08:24:07;;;;;;;0.70;0.70;;;;;;;-7.03;82.97;100379.81;5084461;28;20055;-64
2022/12/11 08:26:33;;;;;;;0.70;0.70;;;;;;;-6.98;82.96;100394.44;5084992;28;20025;-64
2022/12/11 08:28:59;;;;;;;0.70;0.70;;;;;;;-7.00;83.02;100385.94;5084296;28;20024;-64
2022/12/11 08:31:25;;;;;;;0.80;0.80;;;;;;;-6.93;82.95;100389.69;5084833;28;20476;-64
2022/12/11 08:33:52;;;;;;;0.70;0.70;;;;;;;-6.93;83.05;100379.59;5082946;28;20031;-65
2022/12/11 08:36:19;;;;;;;0.70;0.70;;;;;;;-6.85;83.08;100392.69;5084608;28;20112;-65
2022/12/11 08:38:45;;;;;;;0.70;0.70;;;;;;;-6.78;83.07;100393.94;5084358;28;20020;-65
2022/12/11 08:41:17;;;;;;;0.70;0.70;;;;;;;-6.78;83.02;100391.41;5084359;28;20029;-64
2022/12/11 08:43:43;;;;;;;0.80;0.80;;;;;;;-6.75;82.87;100400.06;5084229;28;20020;-65
2022/12/11 08:46:10;;;;;;;0.60;0.60;;;;;;;-6.78;82.90;100401.50;5084475;28;20031;-65
2022/12/11 08:48:37;;;;;;;0.70;0.70;;;;;;;-6.78;82.96;100393.94;5084354;28;20046;-65
2022/12/11 08:51:04;;;;;;;0.70;0.70;;;;;;;-6.75;82.89;100400.06;5084316;28;20028;-64
2022/12/11 08:53:31;;;;;;;0.70;0.70;;;;;;;-6.75;82.88;100400.06;5084250;28;20031;-64
2022/12/11 08:56:04;;;;;;;0.70;0.70;;;;;;;-6.77;82.85;100394.03;5084337;28;20047;-64
2022/12/11 08:58:29;;;;;;;0.70;0.70;;;;;;;-6.78;82.92;100404.03;5083880;28;20066;-66
2022/12/11 09:00:55;;;;;;;0.75;0.75;;;;;;;-6.78;83.08;100402.41;5084081;28;20084;-64
2022/12/11 09:03:21;;;;;;;0.65;0.65;;;;;;;-6.75;83.03;100400.06;5084670;28;20048;-65
2022/12/11 09:05:46;;;;;;;0.70;0.70;;;;;;;-6.70;83.08;100397.81;5088069;28;20023;-64
2022/12/11 09:08:12;;;;;;;0.70;0.70;;;;;;;-6.64;83.31;100397.31;5087919;28;20071;-64
2022/12/11 09:10:37;;;;;;;0.80;0.80;;;;;;;-6.62;83.18;100390.69;5088084;28;20058;-65
2022/12/11 09:13:03;;;;;;;0.70;0.70;;;;;;;-6.58;83.18;100395.16;5087746;28;20020;-65
2022/12/11 09:15:28;;;;;;;0.70;0.70;;;;;;;-6.55;83.37;100387.75;5087779;28;20092;-64
2022/12/11 09:17:53;;;;;;;0.70;0.70;;;;;;;-6.61;83.20;100379.81;5087512;28;20258;-65
2022/12/11 09:20:19;;;;;;;0.70;0.70;;;;;;;-6.44;83.14;100400.19;5087643;28;20046;-64
2022/12/11 09:22:44;;;;;;;0.70;0.70;;;;;;;-6.39;83.04;100398.81;5087617;28;20049;-64
2022/12/11 09:25:10;;;;;;;0.70;0.70;;;;;;;-6.36;83.11;100404.06;5087747;28;20020;-64
2022/12/11 09:27:35;;;;;;;0.70;0.70;;;;;;;-6.23;83.42;100415.78;5087600;28;20025;-64
2022/12/11 09:30:00;;;;;;;0.70;0.70;;;;;;;-6.13;83.17;100418.06;5087298;28;20422;-64
2022/12/11 09:32:26;;;;;;;0.70;0.70;;;;;;;-6.05;83.05;100408.38;5087623;28;20023;-62
2022/12/11 09:34:51;;;;;;;0.70;0.70;;;;;;;-6.01;83.09;100412.81;5087657;28;20024;-63
2022/12/11 09:37:16;;;;;;;0.60;0.60;;;;;;;-6.02;82.93;100416.13;5087444;28;20039;-62
2022/12/11 09:39:42;;;;;;;0.60;0.60;;;;;;;-5.73;83.52;100418.59;5087703;28;20103;-62
2022/12/11 09:42:12;;;;;;;0.70;0.70;;;;;;;-4.94;83.64;100409.50;5087056;28;20028;-64
2022/12/11 09:45:02;;;;;;;0.60;0.60;;;;;;;-3.41;83.18;100409.63;5086910;28;20310;-62
2022/12/11 09:47:43;;;;;;;0.60;0.60;;;;;;;-1.79;81.30;100398.16;5087128;28;20036;-63
2022/12/11 09:50:09;;;;;;;0.70;0.70;;;;;;;-0.27;78.84;100402.25;5087130;28;20107;-64
2022/12/11 09:52:37;;;;;;;0.60;0.60;;;;;;;0.76;77.19;100396.28;5086321;28;20023;-64
2022/12/11 09:55:15;;;;;;;0.60;0.60;;;;;;;1.54;74.57;100386.66;5087097;28;20033;-64
2022/12/11 09:57:59;;;;;;;0.50;0.50;;;;;;;1.52;72.46;100388.28;5086957;28;20088;-64
2022/12/11 10:00:39;;;;;;;0.52;0.52;;;;;;;1.19;70.55;100377.16;5086834;28;20047;-64
2022/12/11 10:03:29;;;;;;;0.65;0.65;;;;;;;0.76;70.90;100378.38;5085347;28;20028;-64
2022/12/11 10:06:20;;;;;;;0.50;0.50;;;;;;;0.65;69.41;100386.59;5087016;28;20024;-64
2022/12/11 10:08:58;;;;;;;0.50;0.50;;;;;;;0.48;69.12;100386.91;5086841;28;20032;-64
2022/12/11 10:11:45;;;;;;;0.55;0.55;;;;;;;0.46;69.72;100374.91;5086720;28;20036;-65
2022/12/11 10:14:42;;;;;;;0.50;0.50;;;;;;;0.48;70.49;100383.47;5085961;28;20032;-64
2022/12/11 10:17:27;;;;;;;0.57;0.57;;;;;;;0.33;70.38;100374.53;5086773;28;20079;-63
2022/12/11 10:19:56;;;;;;;0.60;0.60;;;;;;;-0.11;70.81;100372.16;5086732;28;20039;-63
2022/12/11 10:22:25;;;;;;;0.60;0.60;;;;;;;-0.52;71.75;100363.13;5086403;28;20033;-64
2022/12/11 10:24:56;;;;;;;0.52;0.52;;;;;;;-0.86;72.43;100374.59;5086628;28;20380;-64
2022/12/11 10:27:27;;;;;;;0.50;0.50;;;;;;;-1.05;73.52;100378.13;5086345;28;20024;-65
2022/12/11 10:30:20;;;;;;;0.50;0.50;;;;;;;-1.22;73.90;100374.94;5085040;28;20411;-64
2022/12/11 10:32:51;;;;;;;0.60;0.60;;;;;;;-1.47;74.56;100373.97;5080581;28;20040;-62
2022/12/11 10:35:26;;;;;;;0.60;0.60;;;;;;;-1.63;74.92;100379.28;5086403;28;20024;-64
2022/12/11 10:37:55;;;;;;;0.60;0.60;;;;;;;-1.90;75.04;100374.81;5086228;28;20024;-64
2022/12/11 10:40:23;;;;;;;0.60;0.60;;;;;;;-2.20;75.33;100384.53;5086168;28;20075;-65
2022/12/11 10:42:54;;;;;;;0.60;0.60;;;;;;;-2.41;75.82;100378.59;5085944;28;20086;-65
2022/12/11 10:45:20;;;;;;;0.75;0.75;;;;;;;-2.63;76.32;100377.66;5085906;28;20074;-64
2022/12/11 10:47:45;;;;;;;0.60;0.60;;;;;;;-2.76;76.46;100381.31;5085891;28;20435;-64
2022/12/11 10:50:23;;;;;;;2.42;2.33;;;;;;;-2.89;76.97;100386.63;5086021;28;20031;-64
2022/12/11 10:52:50;;;;;;;0.60;0.60;;;;;;;-3.07;76.77;100372.28;5085809;28;20024;-64
2022/12/11 10:55:25;;;;;;;0.60;0.60;;;;;;;-3.28;76.87;100370.47;5086061;28;20059;-65
2022/12/11 10:57:58;;;;;;;0.60;0.60;;;;;;;-3.42;76.98;100379.09;5085914;28;20032;-65
2022/12/11 11:00:41;;;;;;;0.60;0.60;;;;;;;-3.58;76.98;100373.28;5085511;28;20029;-65
2022/12/11 11:03:26;;;;;;;0.60;0.60;;;;;;;-3.72;77.27;100374.28;5085891;28;20024;-64
2022/12/11 11:06:14;;;;;;;0.60;0.60;;;;;;;-3.68;77.49;100376.16;5084492;28;20052;-68
2022/12/11 11:08:48;;;;;;;0.70;0.70;;;;;;;-3.51;76.97;100369.34;5085651;28;20044;-65
2022/12/11 11:11:31;;;;;;;0.60;0.60;;;;;;;-3.20;76.49;100365.75;5084456;28;20104;-64
2022/12/11 11:14:08;;;;;;;0.60;0.60;;;;;;;-2.71;75.57;100357.75;5085571;28;20040;-65
2022/12/11 11:16:36;;;;;;;0.60;0.60;;;;;;;-2.08;73.41;100364.75;5085574;28;20036;-65
2022/12/11 11:19:02;;;;;;;0.60;0.60;;;;;;;-1.48;71.54;100362.03;5085532;28;20052;-65
2022/12/11 11:21:29;;;;;;;0.60;0.60;;;;;;;-0.91;70.01;100351.50;5085016;28;20110;-64
2022/12/11 11:23:54;;;;;;;0.60;0.60;;;;;;;-0.56;68.83;100358.72;5085179;28;20028;-64
2022/12/11 11:26:21;;;;;;;0.60;0.60;;;;;;;-1.15;68.18;100339.56;5084776;28;20035;-65
2022/12/11 11:28:51;;;;;;;0.60;0.60;;;;;;;-1.81;69.72;100364.16;5085008;28;20047;-65
2022/12/11 11:31:19;;;;;;;0.65;0.65;;;;;;;-2.58;71.18;100362.59;5085356;28;20021;-65
2022/12/11 11:34:02;;;;;;;0.60;0.60;;;;;;;-3.08;72.99;100365.44;5085038;28;20048;-65
2022/12/11 11:36:30;;;;;;;0.70;0.70;;;;;;;-3.44;74.11;100370.53;5085213;28;20024;-66
2022/12/11 11:39:12;;;;;;;0.70;0.70;;;;;;;-3.65;75.45;100373.75;5084958;28;20031;-65
2022/12/11 11:42:12;;;;;;;0.60;0.60;;;;;;;-3.78;76.32;100369.75;5084986;28;20029;-65